createdAt,value
2023-03-05T00:02:05.879Z,22.44
2023-03-05T00:04:37.457Z,22.44
2023-03-05T00:07:11.403Z,22.47
2023-03-05T00:09:41.775Z,22.44
2023-03-05T00:12:11.900Z,22.43
2023-03-05T00:14:43.067Z,22.43
2023-03-05T00:17:14.991Z,22.44
2023-03-05T00:19:45.355Z,22.36
2023-03-05T00:22:15.313Z,22.31
2023-03-05T00:24:45.798Z,22.27
2023-03-05T00:27:17.721Z,22.25
2023-03-05T00:29:48.295Z,22.30
2023-03-05T00:32:18.186Z,22.21
2023-03-05T00:34:50.929Z,22.16
2023-03-05T00:37:22.099Z,22.17
2023-03-05T00:39:52.170Z,22.16
2023-03-05T00:42:22.512Z,22.09
2023-03-05T00:44:55.523Z,22.00
2023-03-05T00:47:25.780Z,22.00
2023-03-05T00:49:55.503Z,22.00
2023-03-05T00:52:26.499Z,22.00
2023-03-05T00:54:57.760Z,22.03
2023-03-05T00:57:29.810Z,22.03
2023-03-05T01:00:00.212Z,22.04
2023-03-05T01:02:30.040Z,22.10
2023-03-05T01:05:00.909Z,22.16
2023-03-05T01:07:31.590Z,22.18
2023-03-05T01:10:02.797Z,22.20
2023-03-05T01:12:33.041Z,22.33
2023-03-05T01:15:03.289Z,22.39
2023-03-05T01:17:34.633Z,22.37
2023-03-05T01:20:06.708Z,22.34
2023-03-05T01:22:37.638Z,22.40
2023-03-05T01:25:07.814Z,22.43
2023-03-05T01:27:38.096Z,22.44
2023-03-05T01:30:10.091Z,22.44
2023-03-05T01:32:41.723Z,22.44
2023-03-05T01:35:17.865Z,22.43
2023-03-05T01:37:49.060Z,22.41
2023-03-05T01:40:28.737Z,22.40
2023-03-05T01:43:09.164Z,22.41
2023-03-05T01:45:41.819Z,22.41
2023-03-05T01:48:13.302Z,22.43
2023-03-05T01:50:43.398Z,22.47
2023-03-05T01:53:14.142Z,22.51
2023-03-05T01:55:45.438Z,22.54
2023-03-05T01:58:15.672Z,22.45
2023-03-05T02:00:51.932Z,22.47
2023-03-05T02:03:25.732Z,22.45
2023-03-05T02:05:57.440Z,22.48
2023-03-05T02:08:27.612Z,22.47
2023-03-05T02:10:59.127Z,22.45
2023-03-05T02:13:33.448Z,22.39
2023-03-05T02:16:06.294Z,22.24
2023-03-05T02:18:36.860Z,22.13
2023-03-05T02:21:12.701Z,22.09
2023-03-05T02:23:44.104Z,22.07
2023-03-05T02:26:14.676Z,22.04
2023-03-05T02:28:53.514Z,21.97
2023-03-05T02:31:25.867Z,21.96
2023-03-05T02:33:57.674Z,21.93
2023-03-05T02:36:29.120Z,21.90
2023-03-05T02:39:00.233Z,21.86
2023-03-05T02:41:31.053Z,21.86
2023-03-05T02:44:02.352Z,21.88
2023-03-05T02:46:34.701Z,21.88
2023-03-05T02:49:05.335Z,21.88
2023-03-05T02:51:35.277Z,21.86
2023-03-05T02:54:06.448Z,21.86
2023-03-05T02:56:36.908Z,21.83
2023-03-05T02:59:07.441Z,21.83
2023-03-05T03:01:38.695Z,21.79
2023-03-05T03:04:10.071Z,21.78
2023-03-05T03:06:40.496Z,21.79
2023-03-05T03:09:10.419Z,21.81
2023-03-05T03:11:40.650Z,21.85
2023-03-05T03:14:11.936Z,21.88
2023-03-05T03:16:43.492Z,21.88
2023-03-05T03:19:14.358Z,21.81
2023-03-05T03:21:44.634Z,21.83
2023-03-05T03:24:15.100Z,21.82
2023-03-05T03:26:45.715Z,21.89
2023-03-05T03:29:16.860Z,21.85
2023-03-05T03:31:48.060Z,21.82
2023-03-05T03:34:18.664Z,21.85
2023-03-05T03:36:52.339Z,21.82
2023-03-05T03:39:24.944Z,21.89
2023-03-05T03:41:58.315Z,21.89
2023-03-05T03:44:28.907Z,21.93
2023-03-05T03:46:59.264Z,21.90
2023-03-05T03:49:29.565Z,21.94
2023-03-05T03:52:00.597Z,21.88
2023-03-05T03:54:30.367Z,21.90
2023-03-05T03:57:00.576Z,21.81
2023-03-05T03:59:30.356Z,21.82
2023-03-05T04:02:00.622Z,21.89
2023-03-05T04:04:31.470Z,21.89
2023-03-05T04:07:03.276Z,21.86
2023-03-05T04:09:33.598Z,21.85
2023-03-05T04:12:03.520Z,21.90
2023-03-05T04:14:34.483Z,21.86
2023-03-05T04:17:05.403Z,21.88
2023-03-05T04:19:35.488Z,21.93
2023-03-05T04:22:05.255Z,21.92
2023-03-05T04:24:36.594Z,21.86
2023-03-05T04:27:08.502Z,21.94
2023-03-05T04:29:39.888Z,21.96
2023-03-05T04:32:10.820Z,21.94
2023-03-05T04:34:40.842Z,22.00
2023-03-05T04:37:12.464Z,22.02
2023-03-05T04:39:44.211Z,22.00
2023-03-05T04:42:14.373Z,22.00
2023-03-05T04:44:44.081Z,21.96
2023-03-05T04:47:15.171Z,22.00
2023-03-05T04:49:46.639Z,22.03
2023-03-05T04:52:17.472Z,22.00
2023-03-05T04:54:48.551Z,22.03
2023-03-05T04:57:19.715Z,21.99
2023-03-05T04:59:50.478Z,22.03
2023-03-05T05:02:20.679Z,22.02
2023-03-05T05:04:53.710Z,21.99
2023-03-05T05:07:25.049Z,22.00
2023-03-05T05:09:55.421Z,21.97
2023-03-05T05:12:25.872Z,22.02
2023-03-05T05:14:55.953Z,22.00
2023-03-05T05:17:27.232Z,22.03
2023-03-05T05:19:58.278Z,22.00
2023-03-05T05:22:31.753Z,22.04
2023-03-05T05:25:03.662Z,22.02
2023-03-05T05:27:35.176Z,22.00
2023-03-05T05:30:06.250Z,21.99
2023-03-05T05:32:37.015Z,22.06
2023-03-05T05:35:08.060Z,21.97
2023-03-05T05:37:38.537Z,22.00
2023-03-05T05:40:09.451Z,22.02
2023-03-05T05:42:41.090Z,22.07
2023-03-05T05:45:13.019Z,22.04
2023-03-05T05:47:43.171Z,22.06
2023-03-05T05:50:13.893Z,22.06
2023-03-05T05:52:44.545Z,22.03
2023-03-05T05:55:15.648Z,22.10
2023-03-05T05:57:45.961Z,22.03
2023-03-05T06:00:17.284Z,22.06
2023-03-05T06:02:48.069Z,22.06
2023-03-05T06:05:18.354Z,22.06
2023-03-05T06:07:48.669Z,22.09
2023-03-05T06:10:19.314Z,22.03
2023-03-05T06:12:49.554Z,22.07
2023-03-05T06:15:21.468Z,22.06
2023-03-05T06:17:51.628Z,22.06
2023-03-05T06:20:21.941Z,22.03
2023-03-05T06:22:52.097Z,22.02
2023-03-05T06:25:22.576Z,21.93
2023-03-05T06:27:53.078Z,21.94
2023-03-05T06:30:23.925Z,21.93
2023-03-05T06:32:54.823Z,21.90
2023-03-05T06:35:25.784Z,21.89
2023-03-05T06:37:56.068Z,21.89
2023-03-05T06:40:26.198Z,21.86
2023-03-05T06:42:55.912Z,21.85
2023-03-05T06:45:27.121Z,21.86
2023-03-05T06:47:57.304Z,21.76
2023-03-05T06:50:30.783Z,21.81
2023-03-05T06:53:00.864Z,21.79
2023-03-05T06:55:31.086Z,21.76
2023-03-05T06:58:01.776Z,21.78
2023-03-05T07:00:31.924Z,21.73
2023-03-05T07:03:02.396Z,21.71
2023-03-05T07:05:33.363Z,21.75
2023-03-05T07:08:05.280Z,21.76
2023-03-05T07:10:41.227Z,21.81
2023-03-05T07:13:12.407Z,21.71
2023-03-05T07:15:45.351Z,21.72
2023-03-05T07:18:16.908Z,21.76
2023-03-05T07:20:48.047Z,21.82
2023-03-05T07:23:18.135Z,21.75
2023-03-05T07:25:47.870Z,21.75
2023-03-05T07:28:18.051Z,21.69
2023-03-05T07:30:56.378Z,21.69
2023-03-05T07:33:29.157Z,21.76
2023-03-05T07:35:59.297Z,21.75
2023-03-05T07:38:29.524Z,21.78
2023-03-05T07:41:04.594Z,21.72
2023-03-05T07:43:35.996Z,21.71
2023-03-05T07:46:15.360Z,21.67
2023-03-05T07:48:45.553Z,21.65
2023-03-05T07:51:17.974Z,21.65
2023-03-05T07:53:50.804Z,21.63
2023-03-05T07:56:32.780Z,21.63
2023-03-05T07:59:15.469Z,21.62
2023-03-05T08:01:45.400Z,21.59
2023-03-05T08:04:15.635Z,21.61
2023-03-05T08:06:48.071Z,21.58
2023-03-05T08:09:20.605Z,21.58
2023-03-05T08:11:51.344Z,21.54
2023-03-05T08:14:21.079Z,21.54
2023-03-05T08:16:54.763Z,21.52
2023-03-05T08:19:25.099Z,21.48
2023-03-05T08:21:56.515Z,21.45
2023-03-05T08:24:30.783Z,21.41
2023-03-05T08:27:01.005Z,21.41
2023-03-05T08:29:31.781Z,21.34
2023-03-05T08:32:02.998Z,21.34
2023-03-05T08:34:33.808Z,21.28
2023-03-05T08:37:04.205Z,21.25
2023-03-05T08:39:35.657Z,21.28
2023-03-05T08:42:09.025Z,21.28
2023-03-05T08:44:39.203Z,21.24
2023-03-05T08:47:09.625Z,21.18
2023-03-05T08:49:40.347Z,21.18
2023-03-05T08:52:12.487Z,21.17
2023-03-05T08:54:43.525Z,21.15
2023-03-05T08:57:14.136Z,21.11
2023-03-05T08:59:44.067Z,21.07
2023-03-05T09:02:17.110Z,21.01
2023-03-05T09:04:47.511Z,21.00
2023-03-05T09:07:17.709Z,20.96
2023-03-05T09:09:48.882Z,20.97
2023-03-05T09:12:18.915Z,20.91
2023-03-05T09:14:48.908Z,20.90
2023-03-05T09:17:19.385Z,20.91
2023-03-05T09:19:49.261Z,20.91
2023-03-05T09:22:19.364Z,20.86
2023-03-05T09:24:49.556Z,20.86
2023-03-05T09:27:21.199Z,20.80
2023-03-05T09:29:51.760Z,20.76
2023-03-05T09:32:21.694Z,20.73
2023-03-05T09:34:52.003Z,20.76
2023-03-05T09:37:22.757Z,20.77
2023-03-05T09:52:34.737Z,20.86
2023-03-05T09:55:12.798Z,20.94
2023-03-05T09:57:51.270Z,21.00
2023-03-05T10:00:40.654Z,21.08
2023-03-05T10:03:44.053Z,21.15
2023-03-05T10:06:32.417Z,21.23
2023-03-05T10:09:11.679Z,21.31
2023-03-05T10:12:11.515Z,21.44
2023-03-05T10:14:43.527Z,21.44
2023-03-05T10:17:29.845Z,21.55
2023-03-05T10:20:00.743Z,21.79
2023-03-05T10:22:51.575Z,21.90
2023-03-05T10:25:49.446Z,22.95
2023-03-05T10:28:55.799Z,25.04
2023-03-05T10:31:52.294Z,25.10
2023-03-05T10:34:38.204Z,26.43
2023-03-05T10:37:41.590Z,28.21
2023-03-05T10:40:36.496Z,28.21
2023-03-05T10:43:21.251Z,27.36
2023-03-05T10:45:58.477Z,29.18
2023-03-05T10:48:47.806Z,28.57
2023-03-05T10:51:35.382Z,25.99
2023-03-05T10:54:32.176Z,24.88
2023-03-05T10:57:26.661Z,23.81
2023-03-05T11:00:08.018Z,23.56
2023-03-05T11:03:12.708Z,23.96
2023-03-05T11:05:51.253Z,23.77
2023-03-05T11:08:26.692Z,24.14
2023-03-05T11:11:25.264Z,25.38
2023-03-05T11:14:05.091Z,25.45
2023-03-05T11:16:47.106Z,25.85
2023-03-05T11:19:17.513Z,26.61
2023-03-05T11:22:06.638Z,26.16
2023-03-05T11:24:38.203Z,27.06
2023-03-05T11:27:34.035Z,26.10
2023-03-05T11:30:06.390Z,25.28
2023-03-05T11:32:36.862Z,24.55
2023-03-05T11:35:32.068Z,24.15
2023-03-05T11:38:08.199Z,23.81
2023-03-05T11:40:38.373Z,23.49
2023-03-05T11:43:16.117Z,23.39
2023-03-05T11:45:48.446Z,23.42
2023-03-05T11:48:27.760Z,23.51
2023-03-05T11:51:01.995Z,23.66
2023-03-05T11:53:38.056Z,23.78
2023-03-05T11:56:16.187Z,24.35
2023-03-05T11:58:50.146Z,25.96
2023-03-05T12:01:25.049Z,26.77
2023-03-05T12:03:57.031Z,26.47
2023-03-05T12:07:00.904Z,26.22
2023-03-05T12:09:35.630Z,27.05
2023-03-05T12:12:26.448Z,26.14
2023-03-05T12:15:26.928Z,26.85
2023-03-05T12:18:06.349Z,27.98
2023-03-05T12:20:55.047Z,28.60
2023-03-05T12:23:28.119Z,27.33
2023-03-05T12:26:02.294Z,27.50
2023-03-05T12:28:39.331Z,26.27
2023-03-05T12:31:28.730Z,25.75
2023-03-05T12:33:59.529Z,25.20
2023-03-05T12:36:39.880Z,24.87
2023-03-05T12:39:50.770Z,24.60
2023-03-05T12:42:33.106Z,24.59
2023-03-05T12:45:30.668Z,24.52
2023-03-05T12:48:02.065Z,24.63
2023-03-05T12:50:35.654Z,24.56
2023-03-05T12:53:14.052Z,24.62
2023-03-05T12:55:50.010Z,24.84
2023-03-05T12:58:41.806Z,25.13
2023-03-05T13:01:37.618Z,27.40
2023-03-05T13:04:15.716Z,28.45
2023-03-05T13:06:47.449Z,28.52
2023-03-05T13:09:30.841Z,27.51
2023-03-05T13:12:03.898Z,29.15
2023-03-05T13:14:45.623Z,29.03
2023-03-05T13:17:33.778Z,27.42
2023-03-05T13:20:27.715Z,26.92
2023-03-05T13:23:17.196Z,28.21
2023-03-05T13:26:03.282Z,29.02
2023-03-05T13:28:34.431Z,29.57
2023-03-05T13:31:21.697Z,29.34
2023-03-05T13:34:00.298Z,29.13
2023-03-05T13:36:31.011Z,29.59
2023-03-05T13:39:01.807Z,30.10
2023-03-05T13:41:32.788Z,29.00
2023-03-05T13:44:06.177Z,28.34
2023-03-05T13:46:40.035Z,28.86
2023-03-05T13:49:23.550Z,28.29
2023-03-05T13:51:56.676Z,27.64
2023-03-05T13:54:30.001Z,27.73
2023-03-05T13:57:02.773Z,27.83
2023-03-05T13:59:35.141Z,27.30
2023-03-05T14:02:22.030Z,27.60
2023-03-05T14:04:53.474Z,27.08
2023-03-05T14:07:32.861Z,28.39
2023-03-05T14:10:04.269Z,29.34
2023-03-05T14:12:44.162Z,30.23
2023-03-05T14:15:27.883Z,30.68
2023-03-05T14:18:20.231Z,31.14
2023-03-05T14:21:23.016Z,30.98
2023-03-05T14:23:58.109Z,30.24
2023-03-05T14:26:30.481Z,30.36
2023-03-05T14:29:09.186Z,30.45
2023-03-05T14:32:10.097Z,31.32
2023-03-05T14:34:43.586Z,31.63
2023-03-05T14:37:25.723Z,30.92
2023-03-05T14:40:06.659Z,29.85
2023-03-05T14:42:52.939Z,29.55
2023-03-05T14:45:26.201Z,29.28
2023-03-05T14:48:00.427Z,29.15
2023-03-05T14:50:37.794Z,28.93
2023-03-05T14:53:30.787Z,29.08
2023-03-05T14:56:00.904Z,28.84
2023-03-05T14:58:33.561Z,28.01
2023-03-05T15:01:04.899Z,27.39
2023-03-05T15:03:35.683Z,26.88
2023-03-05T15:06:05.659Z,26.61
2023-03-05T15:08:37.614Z,26.24
2023-03-05T15:11:09.968Z,26.37
2023-03-05T15:13:42.440Z,26.85
2023-03-05T15:16:16.932Z,27.25
2023-03-05T15:18:48.026Z,27.10
2023-03-05T15:21:18.612Z,27.05
2023-03-05T15:23:48.766Z,27.02
2023-03-05T15:26:20.004Z,27.08
2023-03-05T15:28:50.090Z,27.35
2023-03-05T15:31:19.899Z,27.53
2023-03-05T15:33:50.359Z,27.42
2023-03-05T15:36:20.634Z,27.53
2023-03-05T15:38:51.910Z,27.63
2023-03-05T15:41:23.561Z,28.01
2023-03-05T15:43:53.950Z,28.60
2023-03-05T15:46:24.661Z,29.35
2023-03-05T15:48:54.749Z,29.23
2023-03-05T15:51:25.045Z,29.57
2023-03-05T15:53:55.752Z,29.57
2023-03-05T15:56:27.536Z,28.17
2023-03-05T15:58:58.059Z,27.38
2023-03-05T16:01:28.363Z,27.39
2023-03-05T16:03:58.203Z,28.00
2023-03-05T16:06:28.917Z,28.77
2023-03-05T16:09:05.454Z,29.03
2023-03-05T16:11:38.634Z,28.84
2023-03-05T16:14:11.685Z,27.46
2023-03-05T16:16:42.323Z,26.10
2023-03-05T16:19:14.334Z,25.66
2023-03-05T16:21:44.572Z,25.62
2023-03-05T16:24:14.995Z,26.67
2023-03-05T16:26:45.746Z,28.22
2023-03-05T16:29:16.181Z,28.22
2023-03-05T16:31:48.455Z,28.97
2023-03-05T16:34:20.827Z,28.96
2023-03-05T16:36:53.947Z,29.50
2023-03-05T16:39:25.150Z,30.75
2023-03-05T16:41:56.639Z,29.34
2023-03-05T16:44:27.437Z,28.66
2023-03-05T16:46:57.593Z,30.30
2023-03-05T16:49:27.925Z,30.36
2023-03-05T16:52:16.559Z,30.91
2023-03-05T16:55:13.088Z,30.23
2023-03-05T16:57:44.774Z,29.41
2023-03-05T17:00:16.499Z,30.13
2023-03-05T17:02:47.878Z,30.74
2023-03-05T17:05:17.806Z,30.85
2023-03-05T17:07:47.601Z,30.67
2023-03-05T17:10:19.898Z,30.78
2023-03-05T17:12:50.551Z,31.16
2023-03-05T17:15:21.219Z,30.91
2023-03-05T17:17:51.779Z,31.23
2023-03-05T17:20:21.637Z,30.81
2023-03-05T17:22:51.901Z,31.23
2023-03-05T17:25:22.682Z,31.97
2023-03-05T17:27:53.850Z,31.53
2023-03-05T17:30:24.220Z,30.75
2023-03-05T17:32:55.312Z,31.16
2023-03-05T17:35:26.620Z,31.78
2023-03-05T17:37:59.003Z,31.53
2023-03-05T17:40:29.118Z,30.70
2023-03-05T17:42:59.338Z,30.82
2023-03-05T17:45:29.989Z,29.88
2023-03-05T17:48:01.019Z,29.45
2023-03-05T17:50:31.855Z,28.53
2023-03-05T17:53:02.561Z,28.01
2023-03-05T18:02:18.459Z,27.56
2023-03-05T18:04:54.308Z,27.49
2023-03-05T18:07:25.132Z,27.32
2023-03-05T18:09:55.246Z,26.95
2023-03-05T18:12:25.006Z,26.48
2023-03-05T18:14:56.080Z,26.27
2023-03-05T18:17:26.597Z,26.43
2023-03-05T18:19:57.446Z,27.59
2023-03-05T18:22:28.938Z,29.07
2023-03-05T18:24:59.375Z,29.52
2023-03-05T18:27:29.949Z,30.41
2023-03-05T18:30:00.663Z,30.63
2023-03-05T18:32:30.982Z,29.69
2023-03-05T18:35:01.299Z,29.25
2023-03-05T18:37:31.934Z,30.12
2023-03-05T18:40:05.708Z,31.12
2023-03-05T18:42:35.599Z,29.99
2023-03-05T18:45:11.498Z,29.57
2023-03-05T18:47:43.436Z,29.28
2023-03-05T18:50:19.965Z,28.53
2023-03-05T18:52:50.295Z,27.96
2023-03-05T18:55:26.657Z,27.20
2023-03-05T18:57:59.382Z,26.99
2023-03-05T19:00:33.129Z,27.03
2023-03-05T19:03:04.662Z,27.19
2023-03-05T19:05:41.246Z,26.78
2023-03-05T19:08:12.736Z,26.27
2023-03-05T19:10:44.264Z,26.23
2023-03-05T19:13:40.733Z,26.48
2023-03-05T19:16:30.869Z,26.80
2023-03-05T19:19:21.211Z,27.05
2023-03-05T19:22:00.732Z,27.15
2023-03-05T19:24:33.329Z,27.06
2023-03-05T19:27:11.581Z,26.95
2023-03-05T19:29:44.819Z,26.82
2023-03-05T19:32:19.209Z,26.55
2023-03-05T19:34:50.062Z,26.36
2023-03-05T19:37:20.946Z,26.14
2023-03-05T19:39:51.514Z,26.00
2023-03-05T19:42:21.845Z,26.20
2023-03-05T19:44:52.756Z,27.06
2023-03-05T19:47:22.610Z,28.15
2023-03-05T19:49:53.920Z,30.24
2023-03-05T19:52:26.508Z,30.63
2023-03-05T19:54:56.475Z,30.45
2023-03-05T19:57:26.693Z,30.08
2023-03-05T19:59:57.246Z,29.57
2023-03-05T20:02:27.608Z,28.42
2023-03-05T20:04:59.057Z,28.82
2023-03-05T20:07:29.614Z,28.32
2023-03-05T20:09:59.985Z,28.15
2023-03-05T20:12:31.941Z,28.00
2023-03-05T20:15:02.346Z,28.15
2023-03-05T20:17:32.653Z,27.94
2023-03-05T20:20:03.099Z,27.56
2023-03-05T20:22:35.164Z,27.30
2023-03-05T20:25:07.978Z,27.13
2023-03-05T20:27:38.245Z,26.84
2023-03-05T20:30:10.745Z,26.85
2023-03-05T20:32:42.159Z,26.77
2023-03-05T20:35:18.379Z,26.71
2023-03-05T20:38:23.997Z,26.71
2023-03-05T20:41:11.921Z,26.65
2023-03-05T20:43:48.454Z,26.54
2023-03-05T20:46:33.946Z,26.57
2023-03-05T20:49:05.934Z,26.52
2023-03-05T20:51:38.931Z,26.36
2023-03-05T20:54:12.805Z,26.16
2023-03-05T20:56:43.263Z,26.07
2023-03-05T20:59:13.767Z,25.96
2023-03-05T21:01:43.998Z,25.81
2023-03-05T21:04:13.775Z,25.72
2023-03-05T21:06:44.621Z,25.61
2023-03-05T21:09:15.422Z,25.52
2023-03-05T21:11:46.545Z,25.41
2023-03-05T21:14:16.474Z,25.27
2023-03-05T21:16:46.322Z,25.28
2023-03-05T21:19:21.445Z,25.27
2023-03-05T21:21:52.051Z,25.24
2023-03-05T21:25:07.083Z,25.11
2023-03-05T21:27:43.314Z,24.98
2023-03-05T21:30:14.005Z,24.87
2023-03-05T21:32:46.626Z,24.76
2023-03-05T21:35:23.262Z,24.65
2023-03-05T21:37:53.729Z,24.53
2023-03-05T21:40:23.850Z,24.46
2023-03-05T21:42:54.926Z,24.36
2023-03-05T21:45:28.048Z,24.26
2023-03-05T21:48:00.355Z,24.21
2023-03-05T21:50:34.466Z,24.18
2023-03-05T21:53:04.976Z,24.04
2023-03-05T21:56:22.193Z,23.96
2023-03-05T21:58:54.554Z,23.91
2023-03-05T22:01:24.973Z,23.82
2023-03-05T22:03:55.634Z,23.82
2023-03-05T22:06:25.614Z,23.77
2023-03-05T22:08:56.896Z,23.74
2023-03-05T22:11:28.305Z,23.66
2023-03-05T22:13:58.721Z,23.57
2023-03-05T22:16:29.781Z,23.53
2023-03-05T22:19:01.216Z,23.49
2023-03-05T22:21:33.732Z,23.47
2023-03-05T22:24:05.324Z,23.45
2023-03-05T22:26:38.925Z,23.50
2023-03-05T22:29:12.885Z,23.46
2023-03-05T22:31:44.120Z,23.37
2023-03-05T22:34:15.374Z,23.36
2023-03-05T22:36:45.482Z,23.37
2023-03-05T22:39:17.067Z,23.26
2023-03-05T22:41:48.064Z,23.23
2023-03-05T22:44:19.674Z,23.30
2023-03-05T22:46:52.259Z,23.26
2023-03-05T22:49:22.870Z,23.18
2023-03-05T22:51:53.333Z,23.19
2023-03-05T22:54:24.653Z,23.16
2023-03-05T22:56:55.844Z,23.10
2023-03-05T22:59:25.687Z,23.13
2023-03-05T23:01:56.310Z,23.13
2023-03-05T23:04:58.616Z,23.10
2023-03-05T23:07:32.959Z,23.18
2023-03-05T23:10:10.339Z,23.12
2023-03-05T23:12:46.008Z,23.16
2023-03-05T23:15:19.473Z,23.16
2023-03-05T23:17:50.699Z,23.22
2023-03-05T23:20:30.589Z,23.26
2023-03-05T23:23:02.319Z,23.31
2023-03-05T23:25:34.957Z,23.30
2023-03-05T23:28:07.383Z,23.30
2023-03-05T23:30:41.068Z,23.34
2023-03-05T23:33:20.031Z,23.31
2023-03-05T23:35:58.812Z,23.31
2023-03-05T23:38:31.885Z,23.31
2023-03-05T23:41:04.836Z,23.30
2023-03-05T23:43:35.931Z,23.29
2023-03-05T23:46:13.332Z,23.27
2023-03-05T23:48:45.773Z,23.27
2023-03-05T23:51:17.344Z,23.27
2023-03-05T23:53:48.272Z,23.24
2023-03-05T23:56:19.371Z,23.22
2023-03-05T23:58:51.518Z,23.10
